Terminal Aerodrome Forecast
Issued by NWS La Crosse, WI

Home | Current Version | Previous Version | Text Only | Print | Product List | Glossary On
Versions: 1 2 3 4 5 6 7 8 9 10 11 12 13 14 15 16 17 18 19 20 21 22 23 24 25 26 27 28 29 30 31 32 33 34 35 36 37 38 39 40 41 42
000
FTUS43 KARX 260520
TAFLSE
TAF
KLSE 260520Z 2606/2706 17006KT P6SM VCTS SCT035CB BKN070
     FM260800 16005KT P6SM VCSH SCT035
     FM261500 17007KT P6SM -SHRA BKN030
     FM261800 18006KT P6SM -SHRA VCTS BKN030CB
      TEMPO 2619/2623 4SM SHRA BR BKN020
     FM262300 33005KT P6SM -SHRA BKN020
     FM270200 32005KT P6SM VCSH BKN025=

USA.gov is the U.S. government's official web portal to all federal, state and local government web resources and services.